Flight Track Log - Related Links

Times and Time Zones

All times are in EDT time to prevent confusion due to time zone crossing. See the N502QS flight status page for this flight to view local times or setup timezone preferences in your user account.

Time Position Orientation Groundspeed Altitude Reporting Facility
EDT Latitude Longitude Course Direction KTS MPH feet Rate Location/Type
Thu 06:07:08 PM 32.5897 -92.1028 301° West 283 326 6,900  Level Fort Worth Center
Thu 06:08:08 PM 32.6261 -92.1744 301° West 291 335 10,700 3,350 Climbing Fort Worth Center
Thu 06:09:08 PM 32.6783 -92.2728 302° West 301 346 13,600 2,700 Climbing Fort Worth Center
Thu 06:10:08 PM 32.7306 -92.3808 300° West 338 389 16,100 2,500 Climbing Fort Worth Center
Thu 06:11:00 PM 32.8898 -92.7959 301° West  Level FlightAware Approximate
Thu 06:11:08 PM 32.7853 -92.4964 299° West 376 433 18,600  Level Fort Worth Center
Thu 06:12:08 PM 32.8442 -92.6167 300° West 407 468 21,200 2,600 Climbing Fort Worth Center
Thu 06:13:08 PM 32.9011 -92.7422 298° West 423 487 23,800 2,400 Climbing Fort Worth Center
Thu 06:14:08 PM 32.9625 -92.8778 298° West 447 514 26,000 2,150 Climbing Fort Worth Center
Thu 06:15:08 PM 33.0278 -93.0156 299° West 462 532 28,100 2,100 Climbing Fort Worth Center
Thu 06:16:08 PM 33.0953 -93.1586 299° West 483 556 30,200 2,319 Climbing Fort Worth Center
Thu 06:17:07 PM 33.1631 -93.3067 299° West 494 568 32,700 2,400 Climbing Fort Worth Center
Thu 06:18:08 PM 33.2303 -93.4500 299° West 494 568 35,000 2,479 Climbing Fort Worth Center
Thu 06:19:08 PM 33.2950 -93.5911 299° West 499 574 37,700 1,667 Climbing Fort Worth Center
Thu 06:21:08 PM 33.4306 -93.8717 300° West 480 552 40,000 771 Climbing Fort Worth Center
Thu 06:22:07 PM 33.4972 -94.0208 298° West 489 563 40,000  Level Fort Worth Center
Thu 06:23:08 PM 33.5594 -94.1556 299° West 483 556 40,000  Level Fort Worth Center
Thu 06:24:08 PM 33.6317 -94.2900 303° West 483 556 40,000  Level Fort Worth Center
Thu 06:25:08 PM 33.7058 -94.4247 304° West 478 550 40,000  Level Fort Worth Center
Thu 06:26:08 PM 33.7736 -94.5550 302° West 478 550 40,000  Level Fort Worth Center
Thu 06:27:08 PM 33.8433 -94.6875 302° West 467 537 40,000  Level Fort Worth Center
Thu 06:28:08 PM 33.9169 -94.8156 305° West 467 537 40,000  Level Fort Worth Center
Thu 06:29:07 PM 33.9864 -94.9486 302° West 467 537 40,000  Level Fort Worth Center
Thu 06:30:08 PM 34.0558 -95.0819 302° West 467 537 40,000  Level Fort Worth Center
Thu 06:31:07 PM 34.1269 -95.2156 303° West 467 537 40,000  Level Fort Worth Center
Thu 06:32:07 PM 34.2003 -95.3519 303° West 467 537 40,000  Level Fort Worth Center
Thu 06:33:08 PM 34.2669 -95.4836 302° West 467 537 40,000  Level Fort Worth Center
Thu 06:34:07 PM 34.3358 -95.6178 302° West 467 537 40,000  Level Fort Worth Center
Thu 06:35:07 PM 34.4064 -95.7522 302° West 467 537 40,000  Level Fort Worth Center
Thu 06:36:08 PM 34.4792 -95.8894 303° West 467 537 40,000  Level Fort Worth Center
Thu 06:37:07 PM 34.5497 -96.0269 302° West 472 543 40,000  Level Fort Worth Center
Thu 06:38:07 PM 34.6200 -96.1619 302° West 472 543 40,000  Level Fort Worth Center
Thu 06:39:08 PM 34.6922 -96.3022 302° West 477 549 40,000  Level Fort Worth Center
Thu 06:40:08 PM 34.7622 -96.4378 302° West 477 549 40,000  Level Fort Worth Center
Thu 06:41:08 PM 34.8342 -96.5761 302° West 482 555 40,000  Level Fort Worth Center
Thu 06:42:08 PM 34.9058 -96.7147 302° West 482 555 40,000  Level Fort Worth Center
Thu 06:43:08 PM 34.9753 -96.8536 301° West 487 560 40,000  Level Fort Worth Center
Thu 06:44:08 PM 35.0447 -96.9900 302° West 487 560 40,000  Level Fort Worth Center
Thu 06:45:08 PM 35.1139 -97.1292 301° West 487 560 40,000  Level Fort Worth Center
Thu 06:46:07 PM 35.1933 -97.2839 302° West 496 571 40,000 151 Level Fort Worth Center
Thu 06:47:07 PM 35.2664 -97.4211 303° West 491 565 40,300 595 Climbing Fort Worth Center
Thu 06:48:08 PM 35.3289 -97.5689 297° West 486 559 41,200 950 Climbing Fort Worth Center
Thu 06:49:07 PM 35.3975 -97.7039 302° West 480 552 42,200 908 Climbing Fort Worth Center
Thu 06:50:07 PM 35.4617 -97.8442 299° West 480 552 43,000 397 Climbing Fort Worth Center
Thu 06:51:08 PM 35.5239 -97.9847 299° West 480 552 43,000  Level Fort Worth Center
Thu 06:52:08 PM 35.5856 -98.1256 298° West 480 552 43,000  Level Fort Worth Center
Thu 06:52:55 PM 35.6358 -98.2319 300° West 475 547 43,000  Level Kansas City Center
Thu 06:53:56 PM 35.7000 -98.3794 298° West 472 543 43,000  Level Kansas City Center
Thu 06:54:58 PM 35.7622 -98.5217 298° West 470 541 43,000  Level Kansas City Center
Thu 06:56:00 PM 35.8247 -98.6639 298° West 473 544 43,000  Level Kansas City Center
Thu 06:57:02 PM 35.8833 -98.7997 298° West 473 544 43,000  Level Kansas City Center
Thu 06:58:04 PM 35.9450 -98.9417 298° West 472 543 43,000  Level Kansas City Center
Thu 06:59:06 PM 36.0069 -99.0831 298° West 471 542 43,000  Level Kansas City Center
Thu 07:00:07 PM 36.0806 -99.2514 298° West 468 539 43,000  Level Kansas City Center
Thu 07:01:09 PM 36.1369 -99.3897 297° West 465 535 43,000  Level Kansas City Center
Thu 07:02:11 PM 36.1967 -99.5311 298° West 464 534 43,000  Level Kansas City Center
Thu 07:03:13 PM 36.2578 -99.6747 298° West 470 541 43,000 48 Level Kansas City Center
Thu 07:04:15 PM 36.3181 -99.8194 297° West 471 542 43,100  Climbing Kansas City Center
Thu 07:05:16 PM 36.4069 -99.9781 305° West 467 537 43,000 -98 Descending Kansas City Center
Thu 07:06:18 PM 36.4878 -100.1000 310° West 460 529 42,900 435 Descending Kansas City Center
Thu 07:07:20 PM 36.5617 -100.2206 307° West 442 509 43,900 919 Climbing Kansas City Center
Thu 07:08:22 PM 36.6406 -100.3389 310° West 443 510 44,800 532 Climbing Kansas City Center
Thu 07:09:24 PM 36.7264 -100.4711 309° West 451 519 45,000 98 Climbing Kansas City Center
Thu 07:10:25 PM 36.8006 -100.5956 307° West 460 529 45,000  Level Kansas City Center
Thu 07:11:27 PM 36.8717 -100.7542 299° West 466 536 45,000 48 Level Kansas City Center
Thu 07:12:29 PM 36.9314 -100.8867 299° West 461 531 45,100  Climbing Kansas City Center
Thu 07:13:31 PM 36.9867 -101.0075 300° West 431 496 45,000 -48 Descending Kansas City Center
Thu 07:14:33 PM 37.0486 -101.1497 299° West 417 480 45,000 48 Level Kansas City Center
Thu 07:15:35 PM 37.1131 -101.2747 303° West 434 499 45,100  Climbing Kansas City Center
Thu 07:16:36 PM 37.1967 -101.4086 308° West 434 499 45,000 -49 Descending Kansas City Center
Thu 07:17:38 PM 37.2542 -101.5381 299° West 443 510 45,000  Level Kansas City Center
Thu 07:18:40 PM 37.3244 -101.6972 299° West 458 527 45,000  Level Kansas City Center
Thu 07:19:42 PM 37.3867 -101.8386 299° West 475 547 45,000  Level Kansas City Center
Thu 07:20:44 PM 37.4461 -101.9761 299° West 472 543 45,000  Level Kansas City Center
Thu 07:21:45 PM 37.5156 -102.1336 299° West 463 533 45,000  Level Kansas City Center
Thu 07:22:48 PM 37.5747 -102.2694 299° West 462 532 45,000  Level Kansas City Center
Thu 07:23:49 PM 37.6433 -102.4289 299° West 462 532 45,000  Level Kansas City Center
Thu 07:24:51 PM 37.7033 -102.5667 299° West 467 537 45,000  Level Kansas City Center
Thu 07:25:53 PM 37.7706 -102.7281 298° West 465 535 45,000 -435 Level Kansas City Center
Thu 07:26:55 PM 37.8067 -102.8789 287° West 474 545 44,100 -1,175 Descending Kansas City Center
Thu 07:28:16 PM 37.8506 -103.0939 285° West 483 556 42,200 -1,510 Descending Denver Center
Thu 07:29:18 PM 37.8831 -103.2756 283° West 476 548 40,500 -1,500 Descending Denver Center
Thu 07:30:20 PM 37.9131 -103.4294 284° West 472 543 39,100 -1,210 Descending Denver Center
Thu 07:31:22 PM 37.9472 -103.6125 283° West 482 555 38,000 -1,161 Descending Denver Center
Thu 07:32:24 PM 37.9756 -103.7719 283° West 487 560 36,700 -1,403 Descending Denver Center
Thu 07:33:26 PM 38.0089 -103.9572 283° West 486 559 35,100 -1,500 Descending Denver Center
Thu 07:34:28 PM 38.0392 -104.1164 284° West 488 562 33,600 -1,500 Descending Denver Center
Thu 07:35:30 PM 38.0722 -104.3044 283° West 491 565 32,000 -774 Descending Denver Center
Thu 07:36:32 PM 38.1017 -104.4678 283° West 495 570 32,000 -581 Level Denver Center
Thu 07:37:34 PM 38.1347 -104.6597 282° West 500 575 30,800 -1,403 Descending Denver Center
Thu 07:38:36 PM 38.1628 -104.8219 282° West 495 570 29,100 -1,355 Descending Denver Center
Thu 07:39:38 PM 38.1964 -105.0147 283° West 500 575 28,000 -532 Descending Denver Center
Thu 07:40:40 PM 38.2225 -105.1658 282° West 467 537 28,000 -339 Level Denver Center
Thu 07:41:42 PM 38.2519 -105.3419 282° West 456 525 27,300 -484 Descending Denver Center
Thu 07:42:44 PM 38.2764 -105.4922 282° West 454 522 27,000 -145 Descending Denver Center
Thu 07:43:46 PM 38.3047 -105.6611 282° West 439 505 27,000  Level Denver Center
Thu 07:44:48 PM 38.3283 -105.8056 282° West 436 502 27,000  Level Denver Center
Thu 07:45:50 PM 38.3511 -105.9667 280° West 414 476 27,000 -484 Level Denver Center
Thu 07:46:52 PM 38.3556 -106.1011 272° West 399 459 26,000 -1,161 Descending Denver Center
Thu 07:47:54 PM 38.4125 -106.2194 302° West 391 450 24,600 -1,500 Descending Denver Center
Thu 07:48:56 PM 38.5033 -106.2892 329° Northwest 395 455 22,900 -1,790 Descending Denver Center
Thu 07:49:58 PM 38.5922 -106.3572 329° Northwest 378 435 20,900 -2,029 Descending Denver Center
Thu 07:51:12 PM 38.6856 -106.4172 333° Northwest 375 432 18,300 -1,721 Descending Denver Center
Thu 07:52:14 PM 38.7939 -106.4861 334° Northwest 367 422 17,000 -677 Descending Denver Center
Thu 07:53:16 PM 38.9053 -106.5542 335° Northwest 367 422 16,900 -48 Descending Denver Center
Thu 07:54:18 PM 38.9936 -106.6108 334° Northwest 364 419 16,900  Level Denver Center
Thu 07:55:20 PM 39.0797 -106.6647 334° Northwest 350 403 16,900 -194 Level Denver Center
Thu 07:56:22 PM 39.1631 -106.7175 334° Northwest 338 389 16,500 -576 Descending Denver Center
Thu 07:57:25 PM 39.2364 -106.7644 334° Northwest 304 350 15,700 -960 Descending Denver Center
Thu 07:58:27 PM 39.2997 -106.8047 334° Northwest 261 300 14,500 -1,306 Descending Denver Center
Thu 07:59:29 PM 39.3522 -106.8469 328° Northwest 241 277 13,000 -1,887 Descending Denver Center
Thu 08:00:31 PM 39.3244 -106.9236 245° Southwest 217 250 10,600 -2,177 Descending Denver Center
Thu 08:01:33 PM 39.2900 -106.8956 148° Southeast 201 231 8,500 -2,032 Descending Denver Center
Thu 08:03:00 PM 39.2167 -106.8667 169° South  Level FlightAware Approximate

Login

Don't have an account? Register now (free) for customized features, flight alerts, and more!